KCAG

Craig-Moffat Airport

Craig, Colorado, USA
METAR KCAG 191453Z AUTO 00000KT 10SM CLR M07/M11 A2997 RMK AO2 SLP192 T10671106 55002
Observed Flight Rules
Jan-19 @ 14:53 UTC (36 minutes ago) Visual Flight Rules
Wind Visibility Clouds
Calm 10 miles
  • Clear skies
Temperatures Readings
Current -7°C / 19°F
Dewpoint -11°C / 12°F
Humidity 73%
Altimeter 29.97" Hg
Pressure 1019.2 hPa
Elevation 1887
METAR KCAG 191453Z AUTO 00000KT 10SM CLR M07/M11 A2997 RMK AO2 SLP192 T10671106 55002
Observed Flight Rules
Jan-19 @ 14:53 UTC
(36 minutes ago)
VFR
Wind Visibility
Calm 10 miles
Clouds
  • Clear skies
Temperature Dewpoint
-7°C / 19°F -11°C / 12°F
Humidity Altimeter Pressure
73% 29.97" Hg 1019.2 hPa